LIBD/BRI METAR and TAF weather

Enter ICAO airport designator
Station Type Date Time Source
LIBD METAR 2019/09/21 04:50 UTC NOAA

LIBD 210450Z 27010KT CAVOK 14/08 Q1022


Station Type Date Time Source
LIBD Decoded METAR 2019/09/21 04:50 UTC NOAA

Bari / Palese Macchie, Italy (LIBD) 41-08N 016-47E 49M
Sep 21, 2019 - 12:50 AM EDT / 2019.09.21 0450 UTC
Wind: from the W (270 degrees) at 12 MPH (10 KT):0
Visibility: greater than 7 mile(s):0
Temperature: 57 F (14 C)
Dew Point: 46 F (8 C)
Relative Humidity: 67%
Pressure (altimeter): 30.18 in. Hg (1022 hPa)
ob: LIBD 210450Z 27010KT CAVOK 14/08 Q1022
cycle: 5

Station Type Date Time Source
LIBD TAF 2019/09/20 18:21 UTC NOAA

TAF TAF LIBD 201700Z 2018/2118 36015KT 9999 FEW030

Example: see airport list